sensor_id;sensor_type;location;lat;lon;timestamp;P1;durP1;ratioP1;P2;durP2;ratioP2
21494;SDS011;10909;53.590;10.054;2023-04-07T00:00:20;5.67;;;4.93;;
21494;SDS011;10909;53.590;10.054;2023-04-07T00:02:46;4.80;;;4.30;;
21494;SDS011;10909;53.590;10.054;2023-04-07T00:05:13;5.80;;;4.50;;
21494;SDS011;10909;53.590;10.054;2023-04-07T00:07:39;5.60;;;4.03;;
21494;SDS011;10909;53.590;10.054;2023-04-07T00:10:05;4.33;;;3.93;;
21494;SDS011;10909;53.590;10.054;2023-04-07T00:12:31;5.33;;;4.67;;
21494;SDS011;10909;53.590;10.054;2023-04-07T00:15:00;4.77;;;4.10;;
21494;SDS011;10909;53.590;10.054;2023-04-07T00:17:26;6.03;;;4.17;;
21494;SDS011;10909;53.590;10.054;2023-04-07T00:19:52;4.73;;;3.77;;
21494;SDS011;10909;53.590;10.054;2023-04-07T00:22:18;6.43;;;4.53;;
21494;SDS011;10909;53.590;10.054;2023-04-07T00:24:43;4.80;;;4.10;;
21494;SDS011;10909;53.590;10.054;2023-04-07T00:27:09;5.20;;;4.17;;
21494;SDS011;10909;53.590;10.054;2023-04-07T00:29:35;5.40;;;4.20;;
21494;SDS011;10909;53.590;10.054;2023-04-07T00:32:01;4.80;;;4.20;;
21494;SDS011;10909;53.590;10.054;2023-04-07T00:34:27;4.43;;;3.93;;
21494;SDS011;10909;53.590;10.054;2023-04-07T00:36:52;5.63;;;4.13;;
21494;SDS011;10909;53.590;10.054;2023-04-07T00:39:18;4.80;;;4.17;;
21494;SDS011;10909;53.590;10.054;2023-04-07T00:41:45;6.53;;;4.60;;
21494;SDS011;10909;53.590;10.054;2023-04-07T00:44:12;5.10;;;4.60;;
21494;SDS011;10909;53.590;10.054;2023-04-07T00:46:38;4.47;;;4.03;;
21494;SDS011;10909;53.590;10.054;2023-04-07T00:49:05;4.87;;;4.10;;
21494;SDS011;10909;53.590;10.054;2023-04-07T00:51:31;5.53;;;4.70;;
21494;SDS011;10909;53.590;10.054;2023-04-07T00:53:58;4.33;;;3.90;;
21494;SDS011;10909;53.590;10.054;2023-04-07T00:56:24;5.70;;;4.47;;
21494;SDS011;10909;53.590;10.054;2023-04-07T00:58:55;4.43;;;4.03;;
21494;SDS011;10909;53.590;10.054;2023-04-07T01:01:23;5.80;;;4.33;;
21494;SDS011;10909;53.590;10.054;2023-04-07T01:04:03;4.77;;;4.27;;
21494;SDS011;10909;53.590;10.054;2023-04-07T01:06:34;4.80;;;3.87;;
21494;SDS011;10909;53.590;10.054;2023-04-07T01:09:06;4.63;;;4.13;;
21494;SDS011;10909;53.590;10.054;2023-04-07T01:11:50;4.37;;;3.90;;
21494;SDS011;10909;53.590;10.054;2023-04-07T01:14:30;4.53;;;3.93;;
21494;SDS011;10909;53.590;10.054;2023-04-07T01:17:02;4.87;;;3.87;;
21494;SDS011;10909;53.590;10.054;2023-04-07T01:19:42;5.67;;;3.80;;
21494;SDS011;10909;53.590;10.054;2023-04-07T01:22:13;4.60;;;3.97;;
21494;SDS011;10909;53.590;10.054;2023-04-07T01:30:21;4.97;;;4.47;;
21494;SDS011;10909;53.590;10.054;2023-04-07T01:32:51;4.87;;;3.60;;
21494;SDS011;10909;53.590;10.054;2023-04-07T01:35:20;4.80;;;4.27;;
21494;SDS011;10909;53.590;10.054;2023-04-07T01:37:49;4.40;;;3.80;;
21494;SDS011;10909;53.590;10.054;2023-04-07T01:40:18;5.53;;;4.00;;
21494;SDS011;10909;53.590;10.054;2023-04-07T01:42:45;4.53;;;3.80;;
21494;SDS011;10909;53.590;10.054;2023-04-07T01:45:15;4.13;;;3.73;;
21494;SDS011;10909;53.590;10.054;2023-04-07T01:47:42;4.03;;;3.60;;
21494;SDS011;10909;53.590;10.054;2023-04-07T01:50:09;3.83;;;3.47;;
21494;SDS011;10909;53.590;10.054;2023-04-07T01:52:36;5.40;;;3.60;;
21494;SDS011;10909;53.590;10.054;2023-04-07T01:55:03;4.13;;;3.30;;
21494;SDS011;10909;53.590;10.054;2023-04-07T01:57:30;5.10;;;3.57;;
21494;SDS011;10909;53.590;10.054;2023-04-07T01:59:58;3.40;;;3.10;;
21494;SDS011;10909;53.590;10.054;2023-04-07T02:02:23;4.93;;;3.40;;
21494;SDS011;10909;53.590;10.054;2023-04-07T02:07:41;5.43;;;3.70;;
21494;SDS011;10909;53.590;10.054;2023-04-07T02:10:11;3.70;;;3.30;;
21494;SDS011;10909;53.590;10.054;2023-04-07T02:12:41;4.33;;;3.33;;
21494;SDS011;10909;53.590;10.054;2023-04-07T02:15:11;4.03;;;3.27;;
21494;SDS011;10909;53.590;10.054;2023-04-07T02:17:40;3.40;;;3.10;;
21494;SDS011;10909;53.590;10.054;2023-04-07T02:20:10;4.83;;;3.50;;
21494;SDS011;10909;53.590;10.054;2023-04-07T02:22:38;3.97;;;3.37;;
21494;SDS011;10909;53.590;10.054;2023-04-07T02:27:50;3.33;;;3.03;;
21494;SDS011;10909;53.590;10.054;2023-04-07T02:30:17;4.50;;;2.90;;
21494;SDS011;10909;53.590;10.054;2023-04-07T02:32:43;3.73;;;3.30;;
21494;SDS011;10909;53.590;10.054;2023-04-07T02:35:09;3.97;;;3.03;;
21494;SDS011;10909;53.590;10.054;2023-04-07T02:37:35;3.83;;;3.30;;
21494;SDS011;10909;53.590;10.054;2023-04-07T02:40:02;3.87;;;3.27;;
21494;SDS011;10909;53.590;10.054;2023-04-07T02:42:31;5.43;;;3.47;;
21494;SDS011;10909;53.590;10.054;2023-04-07T02:44:56;4.13;;;3.30;;
21494;SDS011;10909;53.590;10.054;2023-04-07T02:47:22;3.70;;;3.10;;
21494;SDS011;10909;53.590;10.054;2023-04-07T02:49:49;4.03;;;3.03;;
21494;SDS011;10909;53.590;10.054;2023-04-07T02:52:15;3.03;;;2.60;;
21494;SDS011;10909;53.590;10.054;2023-04-07T02:54:41;3.60;;;3.30;;
21494;SDS011;10909;53.590;10.054;2023-04-07T02:57:07;3.67;;;3.00;;
21494;SDS011;10909;53.590;10.054;2023-04-07T02:59:33;4.87;;;3.27;;
21494;SDS011;10909;53.590;10.054;2023-04-07T03:02:00;3.50;;;2.93;;
21494;SDS011;10909;53.590;10.054;2023-04-07T03:04:27;3.27;;;2.70;;
21494;SDS011;10909;53.590;10.054;2023-04-07T03:06:54;3.17;;;2.70;;
21494;SDS011;10909;53.590;10.054;2023-04-07T03:09:21;3.10;;;2.80;;
21494;SDS011;10909;53.590;10.054;2023-04-07T03:11:47;3.77;;;3.00;;
21494;SDS011;10909;53.590;10.054;2023-04-07T03:14:13;4.03;;;3.00;;
21494;SDS011;10909;53.590;10.054;2023-04-07T03:16:40;2.83;;;2.53;;
21494;SDS011;10909;53.590;10.054;2023-04-07T03:19:08;3.43;;;3.07;;
21494;SDS011;10909;53.590;10.054;2023-04-07T03:21:36;3.90;;;2.97;;
21494;SDS011;10909;53.590;10.054;2023-04-07T03:24:03;3.97;;;2.97;;
21494;SDS011;10909;53.590;10.054;2023-04-07T03:26:30;3.57;;;2.70;;
21494;SDS011;10909;53.590;10.054;2023-04-07T03:28:57;2.67;;;2.47;;
21494;SDS011;10909;53.590;10.054;2023-04-07T03:31:25;3.40;;;3.00;;
21494;SDS011;10909;53.590;10.054;2023-04-07T03:33:52;3.40;;;2.87;;
21494;SDS011;10909;53.590;10.054;2023-04-07T03:36:18;3.27;;;2.90;;
21494;SDS011;10909;53.590;10.054;2023-04-07T03:38:45;2.93;;;2.50;;
21494;SDS011;10909;53.590;10.054;2023-04-07T03:41:13;3.33;;;2.77;;
21494;SDS011;10909;53.590;10.054;2023-04-07T03:43:41;4.83;;;3.07;;
21494;SDS011;10909;53.590;10.054;2023-04-07T03:46:06;3.37;;;2.90;;
21494;SDS011;10909;53.590;10.054;2023-04-07T03:48:32;4.17;;;2.93;;
21494;SDS011;10909;53.590;10.054;2023-04-07T03:51:00;4.60;;;2.97;;
21494;SDS011;10909;53.590;10.054;2023-04-07T03:53:27;3.33;;;2.40;;
21494;SDS011;10909;53.590;10.054;2023-04-07T03:55:53;3.43;;;3.00;;
21494;SDS011;10909;53.590;10.054;2023-04-07T03:58:20;3.10;;;2.77;;
21494;SDS011;10909;53.590;10.054;2023-04-07T04:00:47;3.67;;;2.77;;
21494;SDS011;10909;53.590;10.054;2023-04-07T04:03:13;3.73;;;2.80;;
21494;SDS011;10909;53.590;10.054;2023-04-07T04:05:39;4.87;;;3.20;;
21494;SDS011;10909;53.590;10.054;2023-04-07T04:08:06;3.53;;;3.20;;
21494;SDS011;10909;53.590;10.054;2023-04-07T04:10:35;3.93;;;3.00;;
21494;SDS011;10909;53.590;10.054;2023-04-07T04:13:03;3.40;;;2.70;;
21494;SDS011;10909;53.590;10.054;2023-04-07T04:15:31;3.80;;;3.20;;
21494;SDS011;10909;53.590;10.054;2023-04-07T04:17:56;4.93;;;3.63;;
21494;SDS011;10909;53.590;10.054;2023-04-07T04:20:22;3.43;;;3.13;;
21494;SDS011;10909;53.590;10.054;2023-04-07T04:22:49;3.07;;;2.77;;
21494;SDS011;10909;53.590;10.054;2023-04-07T04:25:15;3.77;;;3.27;;
21494;SDS011;10909;53.590;10.054;2023-04-07T04:27:43;5.77;;;2.70;;
21494;SDS011;10909;53.590;10.054;2023-04-07T04:30:09;4.10;;;2.90;;
21494;SDS011;10909;53.590;10.054;2023-04-07T04:32:35;3.77;;;2.90;;
21494;SDS011;10909;53.590;10.054;2023-04-07T04:35:07;3.37;;;3.03;;
21494;SDS011;10909;53.590;10.054;2023-04-07T04:37:33;3.87;;;3.00;;
21494;SDS011;10909;53.590;10.054;2023-04-07T04:39:59;4.93;;;3.00;;
21494;SDS011;10909;53.590;10.054;2023-04-07T04:42:28;3.47;;;2.80;;
21494;SDS011;10909;53.590;10.054;2023-04-07T04:44:57;4.70;;;2.67;;
21494;SDS011;10909;53.590;10.054;2023-04-07T04:47:23;3.83;;;3.17;;
21494;SDS011;10909;53.590;10.054;2023-04-07T04:49:49;3.43;;;3.13;;
21494;SDS011;10909;53.590;10.054;2023-04-07T04:52:14;5.47;;;3.27;;
21494;SDS011;10909;53.590;10.054;2023-04-07T04:54:40;3.10;;;2.80;;
21494;SDS011;10909;53.590;10.054;2023-04-07T04:57:06;3.90;;;2.70;;
21494;SDS011;10909;53.590;10.054;2023-04-07T04:59:32;3.63;;;2.90;;
21494;SDS011;10909;53.590;10.054;2023-04-07T05:01:58;4.10;;;3.20;;
21494;SDS011;10909;53.590;10.054;2023-04-07T05:04:25;5.63;;;3.40;;
21494;SDS011;10909;53.590;10.054;2023-04-07T05:06:52;4.43;;;3.20;;
21494;SDS011;10909;53.590;10.054;2023-04-07T05:09:18;4.67;;;3.20;;
21494;SDS011;10909;53.590;10.054;2023-04-07T05:11:46;4.07;;;3.10;;
21494;SDS011;10909;53.590;10.054;2023-04-07T05:14:14;3.93;;;2.93;;
21494;SDS011;10909;53.590;10.054;2023-04-07T05:16:39;4.40;;;3.23;;
21494;SDS011;10909;53.590;10.054;2023-04-07T05:19:06;3.87;;;3.00;;
21494;SDS011;10909;53.590;10.054;2023-04-07T05:21:33;4.00;;;2.80;;
21494;SDS011;10909;53.590;10.054;2023-04-07T05:24:01;3.80;;;3.00;;
21494;SDS011;10909;53.590;10.054;2023-04-07T05:26:27;4.50;;;3.40;;
21494;SDS011;10909;53.590;10.054;2023-04-07T05:28:53;4.77;;;3.07;;
21494;SDS011;10909;53.590;10.054;2023-04-07T05:31:18;4.17;;;3.30;;
21494;SDS011;10909;53.590;10.054;2023-04-07T05:33:45;5.53;;;3.00;;
21494;SDS011;10909;53.590;10.054;2023-04-07T05:36:10;3.00;;;2.60;;
21494;SDS011;10909;53.590;10.054;2023-04-07T05:38:36;3.97;;;2.80;;
21494;SDS011;10909;53.590;10.054;2023-04-07T05:41:02;4.10;;;3.13;;
21494;SDS011;10909;53.590;10.054;2023-04-07T05:43:28;3.23;;;2.87;;
21494;SDS011;10909;53.590;10.054;2023-04-07T05:45:53;3.57;;;2.70;;
21494;SDS011;10909;53.590;10.054;2023-04-07T05:48:20;3.70;;;3.40;;
21494;SDS011;10909;53.590;10.054;2023-04-07T05:50:46;4.33;;;3.10;;
21494;SDS011;10909;53.590;10.054;2023-04-07T05:53:14;4.70;;;3.10;;
21494;SDS011;10909;53.590;10.054;2023-04-07T05:55:43;3.60;;;3.10;;
21494;SDS011;10909;53.590;10.054;2023-04-07T05:58:11;3.10;;;2.80;;
21494;SDS011;10909;53.590;10.054;2023-04-07T06:00:37;4.83;;;3.00;;
21494;SDS011;10909;53.590;10.054;2023-04-07T06:03:05;3.47;;;2.83;;
21494;SDS011;10909;53.590;10.054;2023-04-07T06:05:32;4.37;;;2.87;;
21494;SDS011;10909;53.590;10.054;2023-04-07T06:07:58;4.80;;;3.47;;
21494;SDS011;10909;53.590;10.054;2023-04-07T06:10:24;3.80;;;3.23;;
21494;SDS011;10909;53.590;10.054;2023-04-07T06:12:51;3.83;;;2.93;;
21494;SDS011;10909;53.590;10.054;2023-04-07T06:15:18;3.50;;;3.03;;
21494;SDS011;10909;53.590;10.054;2023-04-07T06:17:44;3.83;;;3.10;;
21494;SDS011;10909;53.590;10.054;2023-04-07T06:20:10;4.07;;;3.50;;
21494;SDS011;10909;53.590;10.054;2023-04-07T06:22:37;4.90;;;3.80;;
21494;SDS011;10909;53.590;10.054;2023-04-07T06:25:03;4.10;;;3.30;;
21494;SDS011;10909;53.590;10.054;2023-04-07T06:27:29;4.43;;;3.37;;
21494;SDS011;10909;53.590;10.054;2023-04-07T06:29:55;3.87;;;3.40;;
21494;SDS011;10909;53.590;10.054;2023-04-07T06:32:21;4.20;;;3.10;;
21494;SDS011;10909;53.590;10.054;2023-04-07T06:34:46;3.60;;;3.20;;
21494;SDS011;10909;53.590;10.054;2023-04-07T06:37:12;3.93;;;3.23;;
21494;SDS011;10909;53.590;10.054;2023-04-07T06:39:37;3.83;;;3.30;;
21494;SDS011;10909;53.590;10.054;2023-04-07T06:42:03;4.67;;;3.70;;
21494;SDS011;10909;53.590;10.054;2023-04-07T06:44:29;4.37;;;3.43;;
21494;SDS011;10909;53.590;10.054;2023-04-07T06:46:55;4.20;;;3.40;;
21494;SDS011;10909;53.590;10.054;2023-04-07T06:49:21;4.23;;;3.50;;
21494;SDS011;10909;53.590;10.054;2023-04-07T06:51:46;4.37;;;3.30;;
21494;SDS011;10909;53.590;10.054;2023-04-07T06:54:13;4.80;;;3.17;;
21494;SDS011;10909;53.590;10.054;2023-04-07T06:56:39;3.30;;;3.00;;
21494;SDS011;10909;53.590;10.054;2023-04-07T06:59:06;3.77;;;3.20;;
21494;SDS011;10909;53.590;10.054;2023-04-07T07:01:32;3.73;;;3.07;;
21494;SDS011;10909;53.590;10.054;2023-04-07T07:03:58;3.80;;;3.13;;
21494;SDS011;10909;53.590;10.054;2023-04-07T07:06:25;4.20;;;3.30;;
21494;SDS011;10909;53.590;10.054;2023-04-07T07:08:52;4.63;;;3.27;;
21494;SDS011;10909;53.590;10.054;2023-04-07T07:11:20;4.50;;;3.40;;
21494;SDS011;10909;53.590;10.054;2023-04-07T07:13:47;3.97;;;3.27;;
21494;SDS011;10909;53.590;10.054;2023-04-07T07:16:13;4.77;;;3.20;;
21494;SDS011;10909;53.590;10.054;2023-04-07T07:18:40;3.97;;;3.23;;
21494;SDS011;10909;53.590;10.054;2023-04-07T07:21:06;3.90;;;3.47;;
21494;SDS011;10909;53.590;10.054;2023-04-07T07:23:32;4.57;;;3.37;;
21494;SDS011;10909;53.590;10.054;2023-04-07T07:25:58;4.30;;;3.40;;
21494;SDS011;10909;53.590;10.054;2023-04-07T07:28:24;3.57;;;3.07;;
21494;SDS011;10909;53.590;10.054;2023-04-07T07:30:50;4.27;;;3.20;;
21494;SDS011;10909;53.590;10.054;2023-04-07T07:33:15;4.47;;;3.37;;
21494;SDS011;10909;53.590;10.054;2023-04-07T07:35:41;6.30;;;3.20;;
21494;SDS011;10909;53.590;10.054;2023-04-07T07:38:07;4.33;;;3.30;;
21494;SDS011;10909;53.590;10.054;2023-04-07T07:40:33;4.63;;;3.17;;
21494;SDS011;10909;53.590;10.054;2023-04-07T07:42:59;3.23;;;2.87;;
21494;SDS011;10909;53.590;10.054;2023-04-07T07:45:25;4.50;;;3.23;;
21494;SDS011;10909;53.590;10.054;2023-04-07T07:47:51;4.10;;;2.90;;
21494;SDS011;10909;53.590;10.054;2023-04-07T07:50:16;3.40;;;3.10;;
21494;SDS011;10909;53.590;10.054;2023-04-07T07:52:42;5.30;;;3.37;;
21494;SDS011;10909;53.590;10.054;2023-04-07T07:55:08;5.63;;;3.30;;
21494;SDS011;10909;53.590;10.054;2023-04-07T07:57:34;4.30;;;3.43;;
21494;SDS011;10909;53.590;10.054;2023-04-07T08:00:02;6.90;;;3.50;;
21494;SDS011;10909;53.590;10.054;2023-04-07T08:02:28;4.37;;;3.43;;
21494;SDS011;10909;53.590;10.054;2023-04-07T08:04:56;4.27;;;3.17;;
21494;SDS011;10909;53.590;10.054;2023-04-07T08:07:23;4.43;;;4.03;;
21494;SDS011;10909;53.590;10.054;2023-04-07T08:09:49;4.73;;;3.30;;
21494;SDS011;10909;53.590;10.054;2023-04-07T08:12:15;4.60;;;3.53;;
21494;SDS011;10909;53.590;10.054;2023-04-07T08:14:41;3.87;;;3.30;;
21494;SDS011;10909;53.590;10.054;2023-04-07T08:17:06;5.03;;;3.50;;
21494;SDS011;10909;53.590;10.054;2023-04-07T08:19:32;5.67;;;3.83;;
21494;SDS011;10909;53.590;10.054;2023-04-07T08:21:59;5.03;;;3.53;;
21494;SDS011;10909;53.590;10.054;2023-04-07T08:24:27;3.80;;;3.40;;
21494;SDS011;10909;53.590;10.054;2023-04-07T08:26:54;3.90;;;2.80;;
21494;SDS011;10909;53.590;10.054;2023-04-07T08:29:20;3.90;;;3.13;;
21494;SDS011;10909;53.590;10.054;2023-04-07T08:31:45;3.93;;;2.90;;
21494;SDS011;10909;53.590;10.054;2023-04-07T08:34:11;3.97;;;3.20;;
21494;SDS011;10909;53.590;10.054;2023-04-07T08:36:38;3.40;;;3.07;;
21494;SDS011;10909;53.590;10.054;2023-04-07T08:39:04;4.33;;;3.43;;
21494;SDS011;10909;53.590;10.054;2023-04-07T08:41:37;3.77;;;3.37;;
21494;SDS011;10909;53.590;10.054;2023-04-07T08:44:04;4.50;;;3.47;;
21494;SDS011;10909;53.590;10.054;2023-04-07T08:46:32;4.10;;;3.20;;
21494;SDS011;10909;53.590;10.054;2023-04-07T08:48:58;4.43;;;3.30;;
21494;SDS011;10909;53.590;10.054;2023-04-07T08:51:27;3.97;;;3.57;;
21494;SDS011;10909;53.590;10.054;2023-04-07T08:53:57;5.03;;;3.40;;
21494;SDS011;10909;53.590;10.054;2023-04-07T08:56:30;4.43;;;3.17;;
21494;SDS011;10909;53.590;10.054;2023-04-07T08:58:59;3.40;;;2.93;;
21494;SDS011;10909;53.590;10.054;2023-04-07T09:01:29;4.43;;;3.30;;
21494;SDS011;10909;53.590;10.054;2023-04-07T09:03:56;4.53;;;3.60;;
21494;SDS011;10909;53.590;10.054;2023-04-07T09:06:23;4.63;;;3.40;;
21494;SDS011;10909;53.590;10.054;2023-04-07T09:08:51;5.33;;;3.53;;
21494;SDS011;10909;53.590;10.054;2023-04-07T09:11:16;3.70;;;3.07;;
21494;SDS011;10909;53.590;10.054;2023-04-07T09:13:42;4.37;;;3.20;;
21494;SDS011;10909;53.590;10.054;2023-04-07T09:16:08;4.77;;;3.47;;
21494;SDS011;10909;53.590;10.054;2023-04-07T09:18:33;5.03;;;3.73;;
21494;SDS011;10909;53.590;10.054;2023-04-07T09:21:03;3.70;;;3.17;;
21494;SDS011;10909;53.590;10.054;2023-04-07T09:25:57;4.60;;;3.40;;
21494;SDS011;10909;53.590;10.054;2023-04-07T09:28:37;3.83;;;3.43;;
21494;SDS011;10909;53.590;10.054;2023-04-07T09:31:04;3.50;;;3.13;;
21494;SDS011;10909;53.590;10.054;2023-04-07T09:33:34;4.33;;;3.13;;
21494;SDS011;10909;53.590;10.054;2023-04-07T09:36:02;5.20;;;3.90;;
21494;SDS011;10909;53.590;10.054;2023-04-07T09:38:37;4.30;;;3.90;;
21494;SDS011;10909;53.590;10.054;2023-04-07T09:41:12;6.03;;;3.60;;
21494;SDS011;10909;53.590;10.054;2023-04-07T09:43:40;4.80;;;3.50;;
21494;SDS011;10909;53.590;10.054;2023-04-07T09:46:12;4.70;;;3.73;;
21494;SDS011;10909;53.590;10.054;2023-04-07T09:48:40;5.27;;;3.80;;
21494;SDS011;10909;53.590;10.054;2023-04-07T09:51:16;4.90;;;3.30;;
21494;SDS011;10909;53.590;10.054;2023-04-07T09:56:13;4.80;;;3.27;;
21494;SDS011;10909;53.590;10.054;2023-04-07T09:58:40;3.50;;;3.20;;
21494;SDS011;10909;53.590;10.054;2023-04-07T10:01:08;3.57;;;3.27;;
21494;SDS011;10909;53.590;10.054;2023-04-07T10:03:35;3.57;;;3.17;;
21494;SDS011;10909;53.590;10.054;2023-04-07T10:06:02;4.47;;;3.80;;
21494;SDS011;10909;53.590;10.054;2023-04-07T10:08:31;3.90;;;3.30;;
21494;SDS011;10909;53.590;10.054;2023-04-07T10:10:58;4.37;;;3.73;;
21494;SDS011;10909;53.590;10.054;2023-04-07T10:13:28;4.50;;;3.27;;
21494;SDS011;10909;53.590;10.054;2023-04-07T10:15:55;4.33;;;3.50;;
21494;SDS011;10909;53.590;10.054;2023-04-07T10:18:22;3.80;;;3.00;;
21494;SDS011;10909;53.590;10.054;2023-04-07T10:20:53;4.13;;;3.20;;
21494;SDS011;10909;53.590;10.054;2023-04-07T10:23:23;6.03;;;3.60;;
21494;SDS011;10909;53.590;10.054;2023-04-07T10:25:53;3.57;;;3.27;;
21494;SDS011;10909;53.590;10.054;2023-04-07T10:28:23;6.10;;;3.70;;
21494;SDS011;10909;53.590;10.054;2023-04-07T10:30:51;3.63;;;3.10;;
21494;SDS011;10909;53.590;10.054;2023-04-07T10:33:42;3.73;;;3.20;;
21494;SDS011;10909;53.590;10.054;2023-04-07T10:36:15;3.73;;;3.27;;
21494;SDS011;10909;53.590;10.054;2023-04-07T10:38:44;4.60;;;3.13;;
21494;SDS011;10909;53.590;10.054;2023-04-07T10:41:37;5.47;;;3.60;;
21494;SDS011;10909;53.590;10.054;2023-04-07T10:44:06;7.17;;;3.27;;
21494;SDS011;10909;53.590;10.054;2023-04-07T10:47:16;3.80;;;3.40;;
21494;SDS011;10909;53.590;10.054;2023-04-07T10:49:25;3.83;;;3.07;;
21494;SDS011;10909;53.590;10.054;2023-04-07T10:54:35;4.03;;;3.50;;
21494;SDS011;10909;53.590;10.054;2023-04-07T10:59:27;4.00;;;3.60;;
21494;SDS011;10909;53.590;10.054;2023-04-07T11:04:38;4.27;;;3.40;;
21494;SDS011;10909;53.590;10.054;2023-04-07T11:07:06;4.43;;;3.30;;
21494;SDS011;10909;53.590;10.054;2023-04-07T11:09:32;5.47;;;3.00;;
21494;SDS011;10909;53.590;10.054;2023-04-07T11:11:58;3.70;;;2.73;;
21494;SDS011;10909;53.590;10.054;2023-04-07T11:14:25;4.60;;;3.00;;
21494;SDS011;10909;53.590;10.054;2023-04-07T11:16:55;5.10;;;3.90;;
21494;SDS011;10909;53.590;10.054;2023-04-07T11:19:20;4.90;;;3.60;;
21494;SDS011;10909;53.590;10.054;2023-04-07T11:21:46;3.70;;;3.20;;
21494;SDS011;10909;53.590;10.054;2023-04-07T11:24:30;4.43;;;3.70;;
21494;SDS011;10909;53.590;10.054;2023-04-07T11:27:02;6.13;;;4.00;;
21494;SDS011;10909;53.590;10.054;2023-04-07T11:29:31;4.03;;;3.60;;
21494;SDS011;10909;53.590;10.054;2023-04-07T11:31:58;6.13;;;3.33;;
21494;SDS011;10909;53.590;10.054;2023-04-07T11:34:30;4.77;;;3.70;;
21494;SDS011;10909;53.590;10.054;2023-04-07T11:36:57;3.67;;;3.23;;
21494;SDS011;10909;53.590;10.054;2023-04-07T11:39:42;4.93;;;3.33;;
21494;SDS011;10909;53.590;10.054;2023-04-07T11:42:10;3.33;;;2.83;;
21494;SDS011;10909;53.590;10.054;2023-04-07T11:44:43;3.97;;;2.67;;
21494;SDS011;10909;53.590;10.054;2023-04-07T11:47:10;2.92;;;2.33;;
21494;SDS011;10909;53.590;10.054;2023-04-07T11:49:35;3.00;;;2.53;;
21494;SDS011;10909;53.590;10.054;2023-04-07T11:52:09;3.70;;;2.73;;
21494;SDS011;10909;53.590;10.054;2023-04-07T11:54:41;3.47;;;2.67;;
21494;SDS011;10909;53.590;10.054;2023-04-07T11:57:08;3.33;;;2.73;;
21494;SDS011;10909;53.590;10.054;2023-04-07T11:59:36;4.03;;;2.80;;
21494;SDS011;10909;53.590;10.054;2023-04-07T12:02:02;3.27;;;2.63;;
21494;SDS011;10909;53.590;10.054;2023-04-07T12:04:28;3.20;;;2.60;;
21494;SDS011;10909;53.590;10.054;2023-04-07T12:06:58;4.27;;;3.20;;
21494;SDS011;10909;53.590;10.054;2023-04-07T12:09:35;4.70;;;3.60;;
21494;SDS011;10909;53.590;10.054;2023-04-07T12:12:02;3.58;;;2.80;;
21494;SDS011;10909;53.590;10.054;2023-04-07T12:14:32;4.93;;;2.80;;
21494;SDS011;10909;53.590;10.054;2023-04-07T12:16:58;3.42;;;2.80;;
21494;SDS011;10909;53.590;10.054;2023-04-07T12:19:26;3.40;;;2.38;;
21494;SDS011;10909;53.590;10.054;2023-04-07T12:21:53;3.35;;;2.88;;
21494;SDS011;10909;53.590;10.054;2023-04-07T12:24:19;2.83;;;2.40;;
21494;SDS011;10909;53.590;10.054;2023-04-07T12:26:46;2.55;;;2.30;;
21494;SDS011;10909;53.590;10.054;2023-04-07T12:29:12;2.65;;;2.45;;
21494;SDS011;10909;53.590;10.054;2023-04-07T12:31:38;5.18;;;2.70;;
21494;SDS011;10909;53.590;10.054;2023-04-07T12:34:03;3.63;;;2.53;;
21494;SDS011;10909;53.590;10.054;2023-04-07T12:36:29;2.73;;;2.07;;
21494;SDS011;10909;53.590;10.054;2023-04-07T12:38:55;3.47;;;2.15;;
21494;SDS011;10909;53.590;10.054;2023-04-07T12:41:21;2.70;;;2.30;;
21494;SDS011;10909;53.590;10.054;2023-04-07T12:43:48;2.90;;;1.85;;
21494;SDS011;10909;53.590;10.054;2023-04-07T12:46:14;2.00;;;1.80;;
21494;SDS011;10909;53.590;10.054;2023-04-07T12:48:39;2.15;;;1.98;;
21494;SDS011;10909;53.590;10.054;2023-04-07T12:51:05;2.10;;;1.90;;
21494;SDS011;10909;53.590;10.054;2023-04-07T12:53:31;2.22;;;1.80;;
21494;SDS011;10909;53.590;10.054;2023-04-07T12:55:57;1.75;;;1.65;;
21494;SDS011;10909;53.590;10.054;2023-04-07T12:58:23;1.98;;;1.33;;
21494;SDS011;10909;53.590;10.054;2023-04-07T13:00:51;1.88;;;1.55;;
21494;SDS011;10909;53.590;10.054;2023-04-07T13:03:17;2.70;;;1.90;;
21494;SDS011;10909;53.590;10.054;2023-04-07T13:05:43;2.38;;;1.70;;
21494;SDS011;10909;53.590;10.054;2023-04-07T13:08:09;1.60;;;1.50;;
21494;SDS011;10909;53.590;10.054;2023-04-07T13:10:35;1.60;;;1.30;;
21494;SDS011;10909;53.590;10.054;2023-04-07T13:13:01;1.45;;;1.30;;
21494;SDS011;10909;53.590;10.054;2023-04-07T13:15:27;1.65;;;1.30;;
21494;SDS011;10909;53.590;10.054;2023-04-07T13:17:53;1.60;;;1.25;;
21494;SDS011;10909;53.590;10.054;2023-04-07T13:20:20;1.92;;;1.60;;
21494;SDS011;10909;53.590;10.054;2023-04-07T13:22:46;1.48;;;1.30;;
21494;SDS011;10909;53.590;10.054;2023-04-07T13:25:12;1.25;;;1.10;;
21494;SDS011;10909;53.590;10.054;2023-04-07T13:27:38;1.52;;;1.42;;
21494;SDS011;10909;53.590;10.054;2023-04-07T13:30:04;2.00;;;1.52;;
21494;SDS011;10909;53.590;10.054;2023-04-07T13:32:30;1.58;;;1.48;;
21494;SDS011;10909;53.590;10.054;2023-04-07T13:34:56;1.75;;;1.50;;
21494;SDS011;10909;53.590;10.054;2023-04-07T13:37:22;1.75;;;1.60;;
21494;SDS011;10909;53.590;10.054;2023-04-07T13:39:47;1.58;;;1.48;;
21494;SDS011;10909;53.590;10.054;2023-04-07T13:42:14;2.45;;;1.50;;
21494;SDS011;10909;53.590;10.054;2023-04-07T13:44:44;1.95;;;1.75;;
21494;SDS011;10909;53.590;10.054;2023-04-07T13:47:12;2.20;;;1.70;;
21494;SDS011;10909;53.590;10.054;2023-04-07T13:49:44;2.75;;;1.90;;
21494;SDS011;10909;53.590;10.054;2023-04-07T13:52:13;2.17;;;1.48;;
21494;SDS011;10909;53.590;10.054;2023-04-07T13:54:40;2.25;;;1.77;;
21494;SDS011;10909;53.590;10.054;2023-04-07T13:57:06;1.60;;;1.40;;
21494;SDS011;10909;53.590;10.054;2023-04-07T13:59:32;3.42;;;1.70;;
21494;SDS011;10909;53.590;10.054;2023-04-07T14:01:58;1.58;;;1.48;;
21494;SDS011;10909;53.590;10.054;2023-04-07T14:04:24;1.77;;;1.60;;
21494;SDS011;10909;53.590;10.054;2023-04-07T14:06:49;2.65;;;1.52;;
21494;SDS011;10909;53.590;10.054;2023-04-07T14:09:15;1.42;;;1.33;;
21494;SDS011;10909;53.590;10.054;2023-04-07T14:11:41;1.80;;;1.55;;
21494;SDS011;10909;53.590;10.054;2023-04-07T14:14:07;1.60;;;1.50;;
21494;SDS011;10909;53.590;10.054;2023-04-07T14:16:33;1.90;;;1.70;;
21494;SDS011;10909;53.590;10.054;2023-04-07T14:18:59;1.65;;;1.52;;
21494;SDS011;10909;53.590;10.054;2023-04-07T14:21:27;2.40;;;1.55;;
21494;SDS011;10909;53.590;10.054;2023-04-07T14:23:53;2.22;;;1.83;;
21494;SDS011;10909;53.590;10.054;2023-04-07T14:26:19;4.00;;;1.35;;
21494;SDS011;10909;53.590;10.054;2023-04-07T14:28:45;2.20;;;1.80;;
21494;SDS011;10909;53.590;10.054;2023-04-07T14:31:12;2.42;;;1.85;;
21494;SDS011;10909;53.590;10.054;2023-04-07T14:33:39;2.70;;;1.90;;
21494;SDS011;10909;53.590;10.054;2023-04-07T14:36:06;2.33;;;1.67;;
21494;SDS011;10909;53.590;10.054;2023-04-07T14:38:32;2.25;;;1.70;;
21494;SDS011;10909;53.590;10.054;2023-04-07T14:40:57;1.88;;;1.67;;
21494;SDS011;10909;53.590;10.054;2023-04-07T14:43:23;2.20;;;1.90;;
21494;SDS011;10909;53.590;10.054;2023-04-07T14:45:49;2.33;;;1.73;;
21494;SDS011;10909;53.590;10.054;2023-04-07T14:48:15;2.15;;;1.90;;
21494;SDS011;10909;53.590;10.054;2023-04-07T14:50:41;2.00;;;1.80;;
21494;SDS011;10909;53.590;10.054;2023-04-07T14:53:06;2.00;;;1.80;;
21494;SDS011;10909;53.590;10.054;2023-04-07T14:55:32;2.78;;;2.00;;
21494;SDS011;10909;53.590;10.054;2023-04-07T14:57:58;2.67;;;2.15;;